createdAt,value
2022-11-11T17:11:59.556Z,52.80
2022-11-11T17:14:44.810Z,57.90
2022-11-11T17:17:31.036Z,51.65
2022-11-11T17:20:20.820Z,52.45
2022-11-11T17:23:09.584Z,49.03
2022-11-11T17:25:57.268Z,45.63
2022-11-11T17:28:42.930Z,44.72
2022-11-11T17:31:28.598Z,46.95
2022-11-11T17:34:14.436Z,49.40
2022-11-11T17:37:00.369Z,45.35
2022-11-11T17:39:46.821Z,37.05
2022-11-11T17:42:33.656Z,31.75
2022-11-11T17:45:20.133Z,28.90
2022-11-11T17:48:06.747Z,25.20
2022-11-11T17:50:52.223Z,22.95
2022-11-11T17:53:38.068Z,22.25
2022-11-11T17:56:27.232Z,22.25
2022-11-11T17:59:13.381Z,22.75
2022-11-11T18:01:59.829Z,24.15
2022-11-11T18:04:46.293Z,24.65
2022-11-11T18:07:32.395Z,26.27
2022-11-11T18:10:17.952Z,24.67
2022-11-11T18:13:04.335Z,25.15
2022-11-11T18:15:50.026Z,24.55
2022-11-11T18:18:38.694Z,24.05
2022-11-11T18:21:24.226Z,24.75
2022-11-11T18:24:11.294Z,25.80
2022-11-11T18:26:57.362Z,25.98
2022-11-11T18:29:43.956Z,20.98
2022-11-11T18:32:29.769Z,20.45
2022-11-11T18:35:15.679Z,18.92
2022-11-11T18:38:02.028Z,18.73
2022-11-11T18:40:48.064Z,18.80
2022-11-11T18:43:48.966Z,18.70
2022-11-11T18:46:35.819Z,19.10
2022-11-11T18:49:21.896Z,22.42
2022-11-11T18:52:08.089Z,23.20
2022-11-11T18:54:54.278Z,21.40
2022-11-11T18:57:40.317Z,18.90
2022-11-11T19:00:26.132Z,17.90
2022-11-11T19:03:16.386Z,17.02
2022-11-11T19:06:04.004Z,16.73
2022-11-11T19:09:10.677Z,16.55
2022-11-11T19:11:56.292Z,18.13
2022-11-11T19:14:41.847Z,17.58
2022-11-11T19:17:27.224Z,18.27
2022-11-11T19:20:12.929Z,36.58
2022-11-11T19:22:59.229Z,35.17
2022-11-11T19:25:45.010Z,32.72
2022-11-11T19:28:33.371Z,30.85
2022-11-11T19:31:21.292Z,24.83
2022-11-11T19:34:06.788Z,25.38
2022-11-11T19:36:52.683Z,27.80
2022-11-11T19:39:39.490Z,29.98
2022-11-11T19:42:25.498Z,29.95
2022-11-11T19:45:11.295Z,30.83
2022-11-11T19:47:57.007Z,31.67
2022-11-11T19:50:43.318Z,32.00
2022-11-11T19:53:29.594Z,30.30
2022-11-11T19:56:18.937Z,27.00
2022-11-11T19:59:04.575Z,23.92
2022-11-11T20:01:52.822Z,24.08
2022-11-11T20:04:39.365Z,22.13
2022-11-11T20:07:25.560Z,20.42
2022-11-11T20:10:11.434Z,17.52
2022-11-11T20:12:57.591Z,19.42
2022-11-11T20:15:43.687Z,22.25
2022-11-11T20:18:31.433Z,25.63
2022-11-11T20:21:17.128Z,24.75
2022-11-11T20:24:03.207Z,20.08
2022-11-11T20:26:52.370Z,20.52
2022-11-11T20:29:39.608Z,18.25
2022-11-11T20:32:25.972Z,17.30
2022-11-11T20:35:12.035Z,15.90
2022-11-11T20:37:59.485Z,15.40
2022-11-11T20:40:45.119Z,14.85
2022-11-11T20:43:32.760Z,17.67
2022-11-11T20:46:21.159Z,15.13
2022-11-11T20:49:07.585Z,15.68
2022-11-11T20:51:53.380Z,16.27
2022-11-11T20:54:39.894Z,15.88
2022-11-11T20:57:25.791Z,16.02
2022-11-11T21:00:14.195Z,16.00
2022-11-11T21:03:00.211Z,14.85
2022-11-11T21:05:45.798Z,16.33
2022-11-11T21:08:33.016Z,17.10
2022-11-11T21:11:21.485Z,17.48
2022-11-11T21:14:08.762Z,17.25
2022-11-11T21:16:54.859Z,17.75
2022-11-11T21:19:40.912Z,17.58
2022-11-11T21:22:26.512Z,18.13
2022-11-11T21:25:12.497Z,18.65
2022-11-11T21:27:57.903Z,20.95
2022-11-11T21:30:43.215Z,23.08
2022-11-11T21:33:28.907Z,22.20
2022-11-11T21:36:15.259Z,20.48
2022-11-11T21:39:05.240Z,21.73
2022-11-11T21:41:51.971Z,20.90
2022-11-11T21:44:37.818Z,18.98
2022-11-11T21:47:23.586Z,19.63
2022-11-11T21:50:09.540Z,17.85
2022-11-11T21:52:55.088Z,19.20
2022-11-11T21:55:40.654Z,19.45
2022-11-11T21:58:26.549Z,19.80
2022-11-11T22:01:19.271Z,21.35
2022-11-11T22:04:08.191Z,23.73
2022-11-11T22:06:53.541Z,19.35
2022-11-11T22:09:38.994Z,20.20
2022-11-11T22:12:24.286Z,22.63
2022-11-11T22:15:09.968Z,22.08
2022-11-11T22:17:56.298Z,23.25
2022-11-11T22:20:41.621Z,21.95
2022-11-11T22:23:27.286Z,21.30
2022-11-11T22:26:13.028Z,20.13
2022-11-11T22:28:58.826Z,20.08
2022-11-11T22:31:44.864Z,20.17
2022-11-11T22:34:30.469Z,19.70
2022-11-11T22:37:15.878Z,20.02
2022-11-11T22:40:01.173Z,19.42
2022-11-11T22:42:46.708Z,20.02
2022-11-11T22:45:32.279Z,19.63
2022-11-11T22:48:17.542Z,18.33
2022-11-11T22:51:09.496Z,18.38
2022-11-11T22:53:57.538Z,18.80
2022-11-11T22:56:43.336Z,18.85
2022-11-11T22:59:28.923Z,18.95
2022-11-11T23:02:14.580Z,18.05
2022-11-11T23:04:59.778Z,18.80
2022-11-11T23:07:45.280Z,17.90
2022-11-11T23:10:31.780Z,19.80
2022-11-11T23:13:17.032Z,18.00
2022-11-11T23:16:03.118Z,17.45
2022-11-11T23:18:48.997Z,19.20
2022-11-11T23:21:35.547Z,18.38
2022-11-11T23:24:20.982Z,18.33
2022-11-11T23:27:06.205Z,20.17
2022-11-11T23:29:52.754Z,21.98
2022-11-11T23:32:38.459Z,22.23
2022-11-11T23:35:23.847Z,21.40
2022-11-11T23:38:09.298Z,20.90
2022-11-11T23:40:54.927Z,21.73
2022-11-11T23:43:40.986Z,23.23
2022-11-11T23:46:26.481Z,24.90
2022-11-11T23:49:11.814Z,26.33
2022-11-11T23:51:57.170Z,24.92
2022-11-11T23:54:42.560Z,24.67
2022-11-11T23:57:28.015Z,25.20
